sensor_id;sensor_type;location;lat;lon;timestamp;pressure;altitude;pressure_sealevel;temperature;humidity
67501;BME280;54349;52.528;19.760;2024-03-23T00:55:29;99554.73;;;24.36;35.35
67501;BME280;54349;52.528;19.760;2024-03-23T00:57:57;99547.49;;;24.32;35.46
67501;BME280;54349;52.528;19.760;2024-03-23T01:00:24;99542.73;;;24.30;35.59
67501;BME280;54349;52.528;19.760;2024-03-23T01:02:54;99538.64;;;24.29;35.58
67501;BME280;54349;52.528;19.760;2024-03-23T01:05:24;99535.30;;;24.26;35.75
67501;BME280;54349;52.528;19.760;2024-03-23T01:07:53;99535.30;;;24.22;35.64
67501;BME280;54349;52.528;19.760;2024-03-23T01:10:20;99536.01;;;24.20;35.74
67501;BME280;54349;52.528;19.760;2024-03-23T01:12:49;99536.88;;;24.16;35.90
67501;BME280;54349;52.528;19.760;2024-03-23T01:15:19;99532.84;;;24.13;35.91
67501;BME280;54349;52.528;19.760;2024-03-23T01:17:47;99528.61;;;24.10;35.99
67501;BME280;54349;52.528;19.760;2024-03-23T01:20:14;99525.54;;;24.09;35.97
67501;BME280;54349;52.528;19.760;2024-03-23T01:22:43;99525.95;;;24.06;35.92
67501;BME280;54349;52.528;19.760;2024-03-23T01:25:11;99528.09;;;24.00;35.94
67501;BME280;54349;52.528;19.760;2024-03-23T01:27:39;99522.67;;;23.96;36.08
67501;BME280;54349;52.528;19.760;2024-03-23T01:30:08;99522.02;;;23.95;36.05
67501;BME280;54349;52.528;19.760;2024-03-23T01:32:37;99525.87;;;23.97;35.94
67501;BME280;54349;52.528;19.760;2024-03-23T01:35:08;99519.15;;;23.97;36.00
67501;BME280;54349;52.528;19.760;2024-03-23T01:37:37;99521.80;;;23.98;35.80
67501;BME280;54349;52.528;19.760;2024-03-23T01:40:11;99516.91;;;23.99;35.81
67501;BME280;54349;52.528;19.760;2024-03-23T01:42:41;99512.96;;;23.99;35.56
67501;BME280;54349;52.528;19.760;2024-03-23T01:45:10;99510.48;;;23.98;35.60
67501;BME280;54349;52.528;19.760;2024-03-23T01:47:37;99513.02;;;23.99;35.57
67501;BME280;54349;52.528;19.760;2024-03-23T01:50:06;99514.04;;;23.98;35.62
67501;BME280;54349;52.528;19.760;2024-03-23T01:52:35;99506.64;;;23.97;35.47
67501;BME280;54349;52.528;19.760;2024-03-23T01:55:03;99495.52;;;23.96;35.53
67501;BME280;54349;52.528;19.760;2024-03-23T01:57:33;99496.48;;;23.95;35.37
67501;BME280;54349;52.528;19.760;2024-03-23T02:00:01;99494.31;;;23.94;35.32
67501;BME280;54349;52.528;19.760;2024-03-23T02:02:43;99492.32;;;23.94;35.38
67501;BME280;54349;52.528;19.760;2024-03-23T02:05:12;99497.02;;;23.93;35.36
67501;BME280;54349;52.528;19.760;2024-03-23T02:07:42;99499.08;;;23.91;35.32
67501;BME280;54349;52.528;19.760;2024-03-23T02:10:13;99499.27;;;23.88;35.25
67501;BME280;54349;52.528;19.760;2024-03-23T02:12:42;99493.84;;;23.87;35.33
67501;BME280;54349;52.528;19.760;2024-03-23T02:15:10;99497.29;;;23.86;35.14
67501;BME280;54349;52.528;19.760;2024-03-23T02:17:38;99497.70;;;23.85;35.30
67501;BME280;54349;52.528;19.760;2024-03-23T02:20:07;99504.00;;;23.84;35.31
67501;BME280;54349;52.528;19.760;2024-03-23T02:22:36;99499.53;;;23.84;35.20
67501;BME280;54349;52.528;19.760;2024-03-23T02:25:06;99494.97;;;23.83;35.15
67501;BME280;54349;52.528;19.760;2024-03-23T02:27:34;99497.93;;;23.82;34.95
67501;BME280;54349;52.528;19.760;2024-03-23T02:30:08;99497.73;;;23.81;35.11
67501;BME280;54349;52.528;19.760;2024-03-23T02:32:35;99499.27;;;23.80;35.18
67501;BME280;54349;52.528;19.760;2024-03-23T02:35:05;99490.30;;;23.77;35.17
67501;BME280;54349;52.528;19.760;2024-03-23T02:37:33;99490.69;;;23.76;35.11
67501;BME280;54349;52.528;19.760;2024-03-23T02:40:03;99487.76;;;23.72;35.17
67501;BME280;54349;52.528;19.760;2024-03-23T02:42:31;99488.09;;;23.70;35.16
67501;BME280;54349;52.528;19.760;2024-03-23T02:45:01;99486.02;;;23.69;35.12
67501;BME280;54349;52.528;19.760;2024-03-23T02:47:32;99483.20;;;23.68;35.18
67501;BME280;54349;52.528;19.760;2024-03-23T02:50:01;99478.24;;;23.67;35.10
67501;BME280;54349;52.528;19.760;2024-03-23T02:52:29;99475.58;;;23.66;35.13
67501;BME280;54349;52.528;19.760;2024-03-23T02:55:00;99470.63;;;23.64;35.26
67501;BME280;54349;52.528;19.760;2024-03-23T02:57:30;99466.58;;;23.63;35.23
67501;BME280;54349;52.528;19.760;2024-03-23T02:59:59;99463.68;;;23.60;35.17
67501;BME280;54349;52.528;19.760;2024-03-23T03:02:27;99461.31;;;23.58;35.21
67501;BME280;54349;52.528;19.760;2024-03-23T03:04:55;99461.23;;;23.57;35.19
67501;BME280;54349;52.528;19.760;2024-03-23T03:07:24;99459.08;;;23.55;35.25
67501;BME280;54349;52.528;19.760;2024-03-23T03:13:15;99449.66;;;23.51;35.28
67501;BME280;54349;52.528;19.760;2024-03-23T03:15:43;99449.47;;;23.50;35.23
67501;BME280;54349;52.528;19.760;2024-03-23T03:18:14;99439.20;;;23.49;35.25
67501;BME280;54349;52.528;19.760;2024-03-23T03:20:42;99437.96;;;23.48;35.15
67501;BME280;54349;52.528;19.760;2024-03-23T03:23:10;99436.07;;;23.46;35.17
67501;BME280;54349;52.528;19.760;2024-03-23T03:25:38;99436.60;;;23.46;35.14
67501;BME280;54349;52.528;19.760;2024-03-23T03:28:05;99440.51;;;23.44;35.34
67501;BME280;54349;52.528;19.760;2024-03-23T03:30:33;99435.84;;;23.43;35.10
67501;BME280;54349;52.528;19.760;2024-03-23T03:33:02;99440.58;;;23.43;35.17
67501;BME280;54349;52.528;19.760;2024-03-23T03:35:30;99437.17;;;23.41;35.20
67501;BME280;54349;52.528;19.760;2024-03-23T03:38:01;99437.05;;;23.40;35.18
67501;BME280;54349;52.528;19.760;2024-03-23T03:40:29;99437.61;;;23.38;35.21
67501;BME280;54349;52.528;19.760;2024-03-23T03:42:59;99435.88;;;23.37;35.23
67501;BME280;54349;52.528;19.760;2024-03-23T03:45:29;99431.83;;;23.35;35.19
67501;BME280;54349;52.528;19.760;2024-03-23T03:48:00;99423.85;;;23.34;35.22
67501;BME280;54349;52.528;19.760;2024-03-23T03:50:28;99421.89;;;23.33;35.12
67501;BME280;54349;52.528;19.760;2024-03-23T03:52:58;99415.84;;;23.31;35.16
67501;BME280;54349;52.528;19.760;2024-03-23T03:55:25;99420.42;;;23.30;35.13
67501;BME280;54349;52.528;19.760;2024-03-23T03:57:56;99411.95;;;23.28;35.27
67501;BME280;54349;52.528;19.760;2024-03-23T04:00:25;99398.34;;;23.26;35.22
67501;BME280;54349;52.528;19.760;2024-03-23T04:02:53;99397.09;;;23.25;35.25
67501;BME280;54349;52.528;19.760;2024-03-23T04:05:20;99394.59;;;23.23;35.28
67501;BME280;54349;52.528;19.760;2024-03-23T04:07:49;99400.36;;;23.22;35.27
67501;BME280;54349;52.528;19.760;2024-03-23T04:10:17;99400.45;;;23.20;35.36
67501;BME280;54349;52.528;19.760;2024-03-23T04:12:47;99399.71;;;23.19;35.22
67501;BME280;54349;52.528;19.760;2024-03-23T04:15:15;99399.92;;;23.17;35.33
67501;BME280;54349;52.528;19.760;2024-03-23T04:17:47;99401.30;;;23.16;35.43
67501;BME280;54349;52.528;19.760;2024-03-23T04:20:15;99397.75;;;23.15;35.30
67501;BME280;54349;52.528;19.760;2024-03-23T04:22:45;99400.05;;;23.14;35.29
67501;BME280;54349;52.528;19.760;2024-03-23T04:25:13;99404.58;;;23.12;35.47
67501;BME280;54349;52.528;19.760;2024-03-23T04:27:41;99403.80;;;23.11;35.41
67501;BME280;54349;52.528;19.760;2024-03-23T04:30:11;99398.85;;;23.10;35.35
67501;BME280;54349;52.528;19.760;2024-03-23T04:32:39;99386.95;;;23.07;35.37
67501;BME280;54349;52.528;19.760;2024-03-23T04:35:09;99383.67;;;23.04;35.38
67501;BME280;54349;52.528;19.760;2024-03-23T04:37:37;99388.19;;;23.01;35.56
67501;BME280;54349;52.528;19.760;2024-03-23T04:40:05;99389.42;;;23.01;35.48
67501;BME280;54349;52.528;19.760;2024-03-23T04:42:36;99382.82;;;23.02;35.62
67501;BME280;54349;52.528;19.760;2024-03-23T04:48:12;99378.27;;;23.04;35.48
67501;BME280;54349;52.528;19.760;2024-03-23T04:50:40;99379.14;;;23.06;35.69
67501;BME280;54349;52.528;19.760;2024-03-23T04:53:10;99374.66;;;23.08;35.67
67501;BME280;54349;52.528;19.760;2024-03-23T04:55:38;99371.92;;;23.10;35.58
67501;BME280;54349;52.528;19.760;2024-03-23T04:58:08;99374.99;;;23.14;35.60
67501;BME280;54349;52.528;19.760;2024-03-23T05:00:36;99376.16;;;23.17;35.35
67501;BME280;54349;52.528;19.760;2024-03-23T05:03:06;99370.30;;;23.18;35.41
67501;BME280;54349;52.528;19.760;2024-03-23T05:05:33;99364.65;;;23.20;35.64
67501;BME280;54349;52.528;19.760;2024-03-23T05:08:01;99362.00;;;23.22;35.52
67501;BME280;54349;52.528;19.760;2024-03-23T05:10:30;99360.89;;;23.23;35.43
67501;BME280;54349;52.528;19.760;2024-03-23T05:13:00;99356.72;;;23.25;35.51
67501;BME280;54349;52.528;19.760;2024-03-23T05:15:29;99350.66;;;23.28;35.37
67501;BME280;54349;52.528;19.760;2024-03-23T05:17:58;99344.48;;;23.31;35.27
67501;BME280;54349;52.528;19.760;2024-03-23T05:20:27;99345.35;;;23.33;35.19
67501;BME280;54349;52.528;19.760;2024-03-23T05:22:55;99346.04;;;23.36;35.13
67501;BME280;54349;52.528;19.760;2024-03-23T05:25:25;99345.63;;;23.37;35.19
67501;BME280;54349;52.528;19.760;2024-03-23T05:27:53;99341.55;;;23.38;35.17
67501;BME280;54349;52.528;19.760;2024-03-23T05:30:21;99339.20;;;23.40;35.21
67501;BME280;54349;52.528;19.760;2024-03-23T05:32:51;99337.61;;;23.41;35.11
67501;BME280;54349;52.528;19.760;2024-03-23T05:35:19;99331.32;;;23.44;35.08
67501;BME280;54349;52.528;19.760;2024-03-23T05:37:49;99330.02;;;23.45;35.17
67501;BME280;54349;52.528;19.760;2024-03-23T05:40:16;99330.80;;;23.47;35.02
67501;BME280;54349;52.528;19.760;2024-03-23T05:42:44;99325.25;;;23.48;34.96
67501;BME280;54349;52.528;19.760;2024-03-23T05:45:13;99323.16;;;23.49;35.07
67501;BME280;54349;52.528;19.760;2024-03-23T05:47:41;99323.85;;;23.50;34.99
67501;BME280;54349;52.528;19.760;2024-03-23T05:50:09;99325.23;;;23.52;34.97
67501;BME280;54349;52.528;19.760;2024-03-23T05:52:40;99323.94;;;23.53;34.90
67501;BME280;54349;52.528;19.760;2024-03-23T05:55:07;99320.23;;;23.55;34.94
67501;BME280;54349;52.528;19.760;2024-03-23T05:57:35;99320.75;;;23.56;34.97
67501;BME280;54349;52.528;19.760;2024-03-23T06:00:05;99321.26;;;23.57;34.89
67501;BME280;54349;52.528;19.760;2024-03-23T06:02:40;99318.46;;;23.58;34.85
67501;BME280;54349;52.528;19.760;2024-03-23T06:05:08;99317.90;;;23.58;34.93
67501;BME280;54349;52.528;19.760;2024-03-23T06:07:36;99319.24;;;23.59;35.11
67501;BME280;54349;52.528;19.760;2024-03-23T06:10:05;99309.70;;;23.60;35.02
67501;BME280;54349;52.528;19.760;2024-03-23T06:12:33;99310.20;;;23.63;34.88
67501;BME280;54349;52.528;19.760;2024-03-23T06:15:02;99312.94;;;23.65;35.02
67501;BME280;54349;52.528;19.760;2024-03-23T06:17:30;99308.80;;;23.66;34.91
67501;BME280;54349;52.528;19.760;2024-03-23T06:20:00;99313.11;;;23.69;34.87
67501;BME280;54349;52.528;19.760;2024-03-23T06:22:28;99304.54;;;23.70;34.73
67501;BME280;54349;52.528;19.760;2024-03-23T06:24:55;99300.30;;;23.71;34.77
67501;BME280;54349;52.528;19.760;2024-03-23T06:27:25;99299.79;;;23.72;34.85
67501;BME280;54349;52.528;19.760;2024-03-23T06:29:53;99297.02;;;23.72;34.68
67501;BME280;54349;52.528;19.760;2024-03-23T06:32:22;99297.76;;;23.72;34.76
67501;BME280;54349;52.528;19.760;2024-03-23T06:34:51;99298.97;;;23.73;34.81
67501;BME280;54349;52.528;19.760;2024-03-23T06:37:19;99292.09;;;23.73;34.60
67501;BME280;54349;52.528;19.760;2024-03-23T06:39:47;99285.23;;;23.72;34.77
67501;BME280;54349;52.528;19.760;2024-03-23T06:42:15;99281.16;;;23.71;34.78
67501;BME280;54349;52.528;19.760;2024-03-23T06:44:43;99279.03;;;23.71;34.65
67501;BME280;54349;52.528;19.760;2024-03-23T06:47:13;99266.13;;;23.71;34.67
67501;BME280;54349;52.528;19.760;2024-03-23T06:49:42;99264.69;;;23.71;34.81
67501;BME280;54349;52.528;19.760;2024-03-23T06:52:12;99267.40;;;23.71;34.68
67501;BME280;54349;52.528;19.760;2024-03-23T06:54:40;99261.46;;;23.71;34.80
67501;BME280;54349;52.528;19.760;2024-03-23T06:57:07;99257.29;;;23.72;34.65
67501;BME280;54349;52.528;19.760;2024-03-23T06:59:36;99256.80;;;23.71;34.70
67501;BME280;54349;52.528;19.760;2024-03-23T07:02:05;99256.51;;;23.72;34.84
67501;BME280;54349;52.528;19.760;2024-03-23T07:04:37;99252.88;;;23.72;34.73
67501;BME280;54349;52.528;19.760;2024-03-23T07:07:06;99252.07;;;23.72;34.85
67501;BME280;54349;52.528;19.760;2024-03-23T07:09:36;99251.36;;;23.72;34.86
67501;BME280;54349;52.528;19.760;2024-03-23T07:12:05;99249.08;;;23.72;34.80
67501;BME280;54349;52.528;19.760;2024-03-23T07:14:34;99240.09;;;23.71;34.90
67501;BME280;54349;52.528;19.760;2024-03-23T07:17:02;99242.47;;;23.71;34.73
67501;BME280;54349;52.528;19.760;2024-03-23T07:19:32;99242.14;;;23.71;34.81
67501;BME280;54349;52.528;19.760;2024-03-23T07:22:00;99243.80;;;23.71;34.90
67501;BME280;54349;52.528;19.760;2024-03-23T07:24:28;99240.96;;;23.71;34.80
67501;BME280;54349;52.528;19.760;2024-03-23T07:26:58;99239.95;;;23.70;34.72
67501;BME280;54349;52.528;19.760;2024-03-23T07:29:26;99228.42;;;23.70;34.84
67501;BME280;54349;52.528;19.760;2024-03-23T07:31:56;99220.98;;;23.69;34.87
67501;BME280;54349;52.528;19.760;2024-03-23T07:34:24;99217.48;;;23.67;34.72
67501;BME280;54349;52.528;19.760;2024-03-23T07:36:52;99215.80;;;23.68;34.81
67501;BME280;54349;52.528;19.760;2024-03-23T07:39:21;99218.86;;;23.68;34.80
67501;BME280;54349;52.528;19.760;2024-03-23T07:41:49;99219.11;;;23.68;34.72
67501;BME280;54349;52.528;19.760;2024-03-23T07:44:16;99217.85;;;23.68;34.87
67501;BME280;54349;52.528;19.760;2024-03-23T07:46:45;99220.04;;;23.69;34.79
67501;BME280;54349;52.528;19.760;2024-03-23T07:49:13;99215.48;;;23.70;34.89
67501;BME280;54349;52.528;19.760;2024-03-23T07:51:41;99211.05;;;23.70;34.72
67501;BME280;54349;52.528;19.760;2024-03-23T07:54:10;99210.65;;;23.70;34.92
67501;BME280;54349;52.528;19.760;2024-03-23T07:56:39;99200.50;;;23.71;34.81
67501;BME280;54349;52.528;19.760;2024-03-23T07:59:08;99194.73;;;23.71;34.85
67501;BME280;54349;52.528;19.760;2024-03-23T08:01:35;99191.14;;;23.72;34.78
67501;BME280;54349;52.528;19.760;2024-03-23T08:04:03;99189.56;;;23.72;34.74
67501;BME280;54349;52.528;19.760;2024-03-23T08:06:32;99182.48;;;23.72;34.80
67501;BME280;54349;52.528;19.760;2024-03-23T08:09:06;99180.21;;;23.72;34.70
67501;BME280;54349;52.528;19.760;2024-03-23T08:11:34;99175.95;;;23.72;34.76
67501;BME280;54349;52.528;19.760;2024-03-23T08:14:02;99178.64;;;23.72;34.88
67501;BME280;54349;52.528;19.760;2024-03-23T08:16:33;99179.21;;;23.72;34.80
67501;BME280;54349;52.528;19.760;2024-03-23T08:19:02;99176.05;;;23.73;34.79
67501;BME280;54349;52.528;19.760;2024-03-23T08:21:32;99173.98;;;23.73;34.69
67501;BME280;54349;52.528;19.760;2024-03-23T08:24:00;99168.77;;;23.73;34.74
67501;BME280;54349;52.528;19.760;2024-03-23T08:26:28;99163.83;;;23.74;34.78
67501;BME280;54349;52.528;19.760;2024-03-23T08:28:57;99156.55;;;23.74;34.81
67501;BME280;54349;52.528;19.760;2024-03-23T08:31:25;99153.98;;;23.75;34.85
67501;BME280;54349;52.528;19.760;2024-03-23T08:33:52;99153.74;;;23.75;34.82
67501;BME280;54349;52.528;19.760;2024-03-23T08:36:21;99147.39;;;23.75;34.86
67501;BME280;54349;52.528;19.760;2024-03-23T08:38:50;99144.09;;;23.76;34.71
67501;BME280;54349;52.528;19.760;2024-03-23T08:41:22;99136.41;;;23.75;34.72
67501;BME280;54349;52.528;19.760;2024-03-23T08:43:50;99136.44;;;23.76;34.78
67501;BME280;54349;52.528;19.760;2024-03-23T08:46:21;99135.20;;;23.76;34.87
67501;BME280;54349;52.528;19.760;2024-03-23T08:48:50;99124.86;;;23.77;34.95
67501;BME280;54349;52.528;19.760;2024-03-23T08:51:22;99124.96;;;23.76;34.97
67501;BME280;54349;52.528;19.760;2024-03-23T08:53:49;99117.91;;;23.78;34.92
67501;BME280;54349;52.528;19.760;2024-03-23T08:56:17;99115.36;;;23.79;34.89
67501;BME280;54349;52.528;19.760;2024-03-23T08:58:45;99115.42;;;23.81;34.99
67501;BME280;54349;52.528;19.760;2024-03-23T09:01:13;99109.68;;;23.82;35.08
67501;BME280;54349;52.528;19.760;2024-03-23T09:03:41;99104.36;;;23.83;34.90
67501;BME280;54349;52.528;19.760;2024-03-23T09:06:12;99098.52;;;23.84;34.91
67501;BME280;54349;52.528;19.760;2024-03-23T09:08:40;99098.95;;;23.85;35.06
67501;BME280;54349;52.528;19.760;2024-03-23T09:11:12;99094.95;;;23.86;35.11
67501;BME280;54349;52.528;19.760;2024-03-23T09:13:40;99088.36;;;23.87;35.09
67501;BME280;54349;52.528;19.760;2024-03-23T09:16:11;99075.95;;;23.88;35.13
67501;BME280;54349;52.528;19.760;2024-03-23T09:18:38;99063.13;;;23.88;35.16
67501;BME280;54349;52.528;19.760;2024-03-23T09:21:13;99052.85;;;23.88;35.32
67501;BME280;54349;52.528;19.760;2024-03-23T09:23:43;99045.22;;;23.89;35.23
67501;BME280;54349;52.528;19.760;2024-03-23T09:26:12;99022.18;;;23.89;35.31
67501;BME280;54349;52.528;19.760;2024-03-23T09:28:41;99014.94;;;23.90;35.28
67501;BME280;54349;52.528;19.760;2024-03-23T09:31:10;99017.34;;;23.91;35.18
67501;BME280;54349;52.528;19.760;2024-03-23T09:33:43;99028.04;;;23.91;35.25
67501;BME280;54349;52.528;19.760;2024-03-23T09:36:11;99033.48;;;23.90;35.28
67501;BME280;54349;52.528;19.760;2024-03-23T09:38:41;99029.98;;;23.90;35.23
67501;BME280;54349;52.528;19.760;2024-03-23T09:41:10;99025.36;;;23.91;35.17
67501;BME280;54349;52.528;19.760;2024-03-23T09:43:40;99021.92;;;23.92;35.13
67501;BME280;54349;52.528;19.760;2024-03-23T09:46:08;99015.38;;;23.95;35.04
67501;BME280;54349;52.528;19.760;2024-03-23T09:48:36;99012.52;;;23.98;35.06
67501;BME280;54349;52.528;19.760;2024-03-23T09:51:06;99011.05;;;23.99;35.03
67501;BME280;54349;52.528;19.760;2024-03-23T09:53:37;99009.19;;;23.99;34.91
67501;BME280;54349;52.528;19.760;2024-03-23T09:56:07;98996.45;;;24.00;34.94
67501;BME280;54349;52.528;19.760;2024-03-23T09:58:36;99000.50;;;24.02;35.06
67501;BME280;54349;52.528;19.760;2024-03-23T10:01:05;99004.70;;;24.02;35.19
67501;BME280;54349;52.528;19.760;2024-03-23T10:03:42;98999.57;;;24.00;35.44
67501;BME280;54349;52.528;19.760;2024-03-23T10:06:11;98989.31;;;23.97;36.19
67501;BME280;54349;52.528;19.760;2024-03-23T10:08:39;98976.11;;;23.96;36.45
67501;BME280;54349;52.528;19.760;2024-03-23T10:11:15;98965.35;;;23.98;36.86
67501;BME280;54349;52.528;19.760;2024-03-23T10:13:45;98958.28;;;24.00;37.16
67501;BME280;54349;52.528;19.760;2024-03-23T10:16:23;98961.30;;;24.02;37.35
67501;BME280;54349;52.528;19.760;2024-03-23T10:18:53;98961.41;;;24.05;37.54
67501;BME280;54349;52.528;19.760;2024-03-23T10:21:21;98955.06;;;24.07;37.67
67501;BME280;54349;52.528;19.760;2024-03-23T10:23:49;98957.39;;;24.10;37.69
67501;BME280;54349;52.528;19.760;2024-03-23T10:28:55;98952.67;;;24.12;37.85
67501;BME280;54349;52.528;19.760;2024-03-23T10:31:41;98955.17;;;24.10;37.73
67501;BME280;54349;52.528;19.760;2024-03-23T10:34:12;98961.83;;;24.10;37.79
67501;BME280;54349;52.528;19.760;2024-03-23T10:36:41;98961.55;;;24.08;37.41
67501;BME280;54349;52.528;19.760;2024-03-23T10:39:11;98956.98;;;24.07;37.54
67501;BME280;54349;52.528;19.760;2024-03-23T10:41:41;98953.81;;;24.07;37.47
67501;BME280;54349;52.528;19.760;2024-03-23T10:44:11;98954.33;;;24.06;37.57
67501;BME280;54349;52.528;19.760;2024-03-23T10:46:39;98954.89;;;24.04;37.51
67501;BME280;54349;52.528;19.760;2024-03-23T10:49:07;98947.95;;;24.03;37.63
67501;BME280;54349;52.528;19.760;2024-03-23T10:51:35;98944.34;;;24.04;37.66
67501;BME280;54349;52.528;19.760;2024-03-23T10:54:06;98934.95;;;24.04;37.84
67501;BME280;54349;52.528;19.760;2024-03-23T10:56:35;98927.70;;;24.05;37.72
67501;BME280;54349;52.528;19.760;2024-03-23T10:59:06;98917.98;;;24.06;37.76
67501;BME280;54349;52.528;19.760;2024-03-23T11:01:35;98918.27;;;24.08;37.81
67501;BME280;54349;52.528;19.760;2024-03-23T11:04:04;98911.12;;;24.09;37.91
67501;BME280;54349;52.528;19.760;2024-03-23T11:06:38;98911.17;;;24.10;37.77
67501;BME280;54349;52.528;19.760;2024-03-23T11:12:28;98907.16;;;24.11;37.86
67501;BME280;54349;52.528;19.760;2024-03-23T11:17:30;98893.06;;;24.11;37.62
67501;BME280;54349;52.528;19.760;2024-03-23T11:20:01;98893.02;;;24.10;37.43
67501;BME280;54349;52.528;19.760;2024-03-23T11:25:24;98886.41;;;24.05;37.15
67501;BME280;54349;52.528;19.760;2024-03-23T11:27:58;98881.78;;;24.03;37.25
67501;BME280;54349;52.528;19.760;2024-03-23T11:30:38;98869.47;;;24.02;37.26
67501;BME280;54349;52.528;19.760;2024-03-23T11:33:07;98876.61;;;24.03;37.33
67501;BME280;54349;52.528;19.760;2024-03-23T11:35:38;98871.42;;;24.02;37.21
67501;BME280;54349;52.528;19.760;2024-03-23T11:38:08;98865.50;;;23.97;37.27
67501;BME280;54349;52.528;19.760;2024-03-23T11:40:43;98860.79;;;23.96;37.23
67501;BME280;54349;52.528;19.760;2024-03-23T11:43:16;98852.42;;;23.92;37.27
67501;BME280;54349;52.528;19.760;2024-03-23T11:45:48;98846.41;;;23.88;37.32
67501;BME280;54349;52.528;19.760;2024-03-23T11:48:22;98832.48;;;23.82;37.31
67501;BME280;54349;52.528;19.760;2024-03-23T11:50:55;98831.48;;;23.75;37.38
67501;BME280;54349;52.528;19.760;2024-03-23T11:53:26;98839.61;;;23.75;37.47
67501;BME280;54349;52.528;19.760;2024-03-23T11:55:58;98836.55;;;23.76;37.69
67501;BME280;54349;52.528;19.760;2024-03-23T11:58:27;98834.27;;;23.79;37.61
67501;BME280;54349;52.528;19.760;2024-03-23T12:00:57;98825.36;;;23.80;37.69
67501;BME280;54349;52.528;19.760;2024-03-23T12:03:27;98815.89;;;23.73;37.23
67501;BME280;54349;52.528;19.760;2024-03-23T12:06:03;98810.75;;;23.60;37.50
67501;BME280;54349;52.528;19.760;2024-03-23T12:08:33;98800.70;;;23.54;37.45
67501;BME280;54349;52.528;19.760;2024-03-23T12:11:06;98801.08;;;23.49;37.85
67501;BME280;54349;52.528;19.760;2024-03-23T12:13:35;98795.11;;;23.53;37.99
67501;BME280;54349;52.528;19.760;2024-03-23T12:16:16;98791.38;;;23.56;38.05
67501;BME280;54349;52.528;19.760;2024-03-23T12:18:47;98788.78;;;23.59;38.09
67501;BME280;54349;52.528;19.760;2024-03-23T12:21:16;98790.02;;;23.63;38.17
67501;BME280;54349;52.528;19.760;2024-03-23T12:23:46;98791.23;;;23.63;38.23
67501;BME280;54349;52.528;19.760;2024-03-23T12:26:16;98785.57;;;23.62;38.21
67501;BME280;54349;52.528;19.760;2024-03-23T12:28:46;98777.88;;;23.57;38.32
67501;BME280;54349;52.528;19.760;2024-03-23T12:31:14;98771.24;;;23.60;38.45
67501;BME280;54349;52.528;19.760;2024-03-23T12:33:42;98754.05;;;23.64;38.41
67501;BME280;54349;52.528;19.760;2024-03-23T12:36:12;98749.82;;;23.67;38.40
67501;BME280;54349;52.528;19.760;2024-03-23T12:38:42;98744.14;;;23.71;38.50
67501;BME280;54349;52.528;19.760;2024-03-23T12:41:13;98737.07;;;23.76;38.45
67501;BME280;54349;52.528;19.760;2024-03-23T12:43:41;98733.92;;;23.78;38.38
67501;BME280;54349;52.528;19.760;2024-03-23T12:46:09;98729.72;;;23.80;38.35
67501;BME280;54349;52.528;19.760;2024-03-23T12:48:39;98729.66;;;23.83;38.25
67501;BME280;54349;52.528;19.760;2024-03-23T12:51:07;98727.08;;;23.85;38.32
67501;BME280;54349;52.528;19.760;2024-03-23T12:53:37;98724.41;;;23.82;38.15
67501;BME280;54349;52.528;19.760;2024-03-23T12:56:05;98720.81;;;23.84;38.22
67501;BME280;54349;52.528;19.760;2024-03-23T12:58:33;98709.94;;;23.85;38.37
67501;BME280;54349;52.528;19.760;2024-03-23T13:01:02;98710.92;;;23.83;38.32
67501;BME280;54349;52.528;19.760;2024-03-23T13:03:30;98716.23;;;23.84;38.43
67501;BME280;54349;52.528;19.760;2024-03-23T13:05:58;98720.57;;;23.83;38.36
67501;BME280;54349;52.528;19.760;2024-03-23T13:08:26;98710.98;;;23.83;38.37
67501;BME280;54349;52.528;19.760;2024-03-23T13:10:53;98708.09;;;23.84;38.40
67501;BME280;54349;52.528;19.760;2024-03-23T13:13:25;98698.35;;;23.82;38.44
67501;BME280;54349;52.528;19.760;2024-03-23T13:15:52;98686.17;;;23.75;38.57
67501;BME280;54349;52.528;19.760;2024-03-23T13:18:20;98689.55;;;23.71;38.61
67501;BME280;54349;52.528;19.760;2024-03-23T13:20:49;98692.39;;;23.69;38.48
67501;BME280;54349;52.528;19.760;2024-03-23T13:23:17;98684.93;;;23.69;38.66
67501;BME280;54349;52.528;19.760;2024-03-23T13:25:55;98690.20;;;23.70;38.73
67501;BME280;54349;52.528;19.760;2024-03-23T13:28:25;98687.27;;;23.70;38.87
67501;BME280;54349;52.528;19.760;2024-03-23T13:30:56;98680.61;;;23.72;38.76
67501;BME280;54349;52.528;19.760;2024-03-23T13:33:26;98681.03;;;23.75;38.73
67501;BME280;54349;52.528;19.760;2024-03-23T13:35:55;98680.66;;;23.76;38.73
67501;BME280;54349;52.528;19.760;2024-03-23T13:38:25;98691.02;;;23.77;38.70
67501;BME280;54349;52.528;19.760;2024-03-23T13:40:57;98689.67;;;23.78;38.53
67501;BME280;54349;52.528;19.760;2024-03-23T13:43:27;98688.64;;;23.78;38.44
67501;BME280;54349;52.528;19.760;2024-03-23T13:45:57;98683.32;;;23.77;38.48
67501;BME280;54349;52.528;19.760;2024-03-23T13:48:27;98690.83;;;23.77;38.69
67501;BME280;54349;52.528;19.760;2024-03-23T13:50:58;98697.23;;;23.72;38.81
67501;BME280;54349;52.528;19.760;2024-03-23T13:53:27;98699.98;;;23.69;38.71
67501;BME280;54349;52.528;19.760;2024-03-23T13:55:55;98691.16;;;23.70;38.50
67501;BME280;54349;52.528;19.760;2024-03-23T13:58:24;98675.80;;;23.70;38.74
67501;BME280;54349;52.528;19.760;2024-03-23T14:00:53;98661.77;;;23.71;38.60
67501;BME280;54349;52.528;19.760;2024-03-23T14:03:24;98637.89;;;23.72;38.67
67501;BME280;54349;52.528;19.760;2024-03-23T14:05:52;98629.31;;;23.73;38.74
67501;BME280;54349;52.528;19.760;2024-03-23T14:08:22;98633.09;;;23.73;38.51
67501;BME280;54349;52.528;19.760;2024-03-23T14:10:50;98625.21;;;23.71;38.47
67501;BME280;54349;52.528;19.760;2024-03-23T14:13:21;98620.53;;;23.74;38.66